Time,TemperatureF,DewpointF,PressureIn,WindDirection,WindDirectionDegrees,WindSpeedMPH,WindSpeedGustMPH,Humidity,HourlyPrecipIn,Conditions,Clouds,dailyrainin,SolarRadiationWatts/m^2,SoftwareType,DateUTC
2013-09-22 00:02:00,67.1,57.0,29.93,NW,315,0.0,0.0,70,0.00,CLR,,0.00,0.0,WeatherDisplay:10.37,2013-09-22 05:02:00,
2013-09-22 00:07:00,67.1,57.0,29.93,NW,315,0.0,0.0,70,0.00,CLR,,0.00,0.0,WeatherDisplay:10.37,2013-09-22 05:07:00,
2013-09-22 00:12:00,66.9,57.2,29.93,NW,315,0.0,0.0,71,0.00,CLR,,0.00,0.0,WeatherDisplay:10.37,2013-09-22 05:12:00,
2013-09-22 00:17:00,66.7,57.0,29.93,NW,315,0.0,0.0,71,0.00,CLR,,0.00,0.0,WeatherDisplay:10.37,2013-09-22 05:17:00,
2013-09-22 00:22:00,66.6,56.9,29.93,NW,315,0.0,0.0,71,0.00,CLR,,0.00,0.0,WeatherDisplay:10.37,2013-09-22 05:22:00,
2013-09-22 00:27:00,66.6,57.3,29.93,NW,315,0.0,0.0,72,0.00,CLR,,0.00,0.0,WeatherDisplay:10.37,2013-09-22 05:27:00,
2013-09-22 00:32:00,66.4,57.1,29.91,NNE,22,0.0,0.0,72,0.00,CLR,,0.00,0.0,WeatherDisplay:10.37,2013-09-22 05:32:00,
2013-09-22 00:37:00,66.4,57.1,29.91,ENE,68,0.0,0.0,72,0.00,CLR,,0.00,0.0,WeatherDisplay:10.37,2013-09-22 05:37:00,
2013-09-22 00:42:00,66.2,56.9,29.91,NW,315,0.0,0.0,72,0.00,CLR,,0.00,0.0,WeatherDisplay:10.37,2013-09-22 05:42:00,
2013-09-22 00:47:00,66.0,57.1,29.91,NW,315,0.0,0.0,73,0.00,CLR,,0.00,0.0,WeatherDisplay:10.37,2013-09-22 05:47:00,
2013-09-22 00:52:00,65.8,56.9,29.93,NNE,22,0.0,0.0,73,0.00,CLR,,0.00,0.0,WeatherDisplay:10.37,2013-09-22 05:52:00,
2013-09-22 00:57:00,65.7,57.1,29.93,NNE,22,0.0,0.0,74,0.00,CLR,,0.00,0.0,WeatherDisplay:10.37,2013-09-22 05:57:00,
2013-09-22 01:02:00,65.7,57.1,29.93,WNW,292,0.0,0.0,74,0.00,CLR,,0.00,0.0,WeatherDisplay:10.37,2013-09-22 06:02:00,
2013-09-22 01:07:00,65.7,57.1,29.93,NNE,22,0.0,0.0,74,0.00,CLR,,0.00,0.0,WeatherDisplay:10.37,2013-09-22 06:07:00,
2013-09-22 01:12:00,65.7,57.1,29.93,NW,315,0.0,0.0,74,0.00,CLR,,0.00,0.0,WeatherDisplay:10.37,2013-09-22 06:12:00,
2013-09-22 01:17:00,65.3,56.8,29.93,NNW,338,0.0,0.0,74,0.00,CLR,,0.00,0.0,WeatherDisplay:10.37,2013-09-22 06:17:00,
2013-09-22 01:22:00,65.1,56.6,29.93,NNW,338,0.0,0.0,74,0.00,CLR,,0.00,0.0,WeatherDisplay:10.37,2013-09-22 06:22:00,
2013-09-22 01:27:00,65.1,56.6,29.93,NNW,338,0.0,0.0,74,0.00,CLR,,0.00,0.0,WeatherDisplay:10.37,2013-09-22 06:27:00,
2013-09-22 01:32:00,64.9,56.5,29.92,NNW,338,0.0,0.0,74,0.00,CLR,,0.00,0.0,WeatherDisplay:10.37,2013-09-22 06:32:00,
2013-09-22 01:37:00,64.8,56.6,29.92,NNW,338,0.0,0.0,75,0.00,CLR,,0.00,0.0,WeatherDisplay:10.37,2013-09-22 06:37:00,
2013-09-22 01:42:00,64.9,56.8,29.92,NNW,338,0.0,0.0,75,0.00,CLR,,0.00,0.0,WeatherDisplay:10.37,2013-09-22 06:42:00,
2013-09-22 01:47:00,64.8,57.0,29.92,NNW,338,0.0,0.0,76,0.00,CLR,,0.00,0.0,WeatherDisplay:10.37,2013-09-22 06:47:00,
2013-09-22 01:52:00,64.6,56.8,29.91,NNW,338,0.0,0.0,76,0.00,CLR,,0.00,0.0,WeatherDisplay:10.37,2013-09-22 06:52:00,
2013-09-22 01:57:00,64.4,56.7,29.91,NNW,338,0.0,0.0,76,0.00,CLR,,0.00,0.0,WeatherDisplay:10.37,2013-09-22 06:57:00,
2013-09-22 02:02:00,64.6,56.8,29.91,NNW,338,0.0,0.0,76,0.00,CLR,,0.00,0.0,WeatherDisplay:10.37,2013-09-22 07:02:00,
2013-09-22 02:07:00,64.4,57.0,29.91,NNW,338,0.0,0.0,77,0.00,CLR,,0.00,0.0,WeatherDisplay:10.37,2013-09-22 07:07:00,
2013-09-22 02:12:00,64.4,57.0,29.92,NNW,338,0.0,0.0,77,0.00,CLR,,0.00,0.0,WeatherDisplay:10.37,2013-09-22 07:12:00,
2013-09-22 02:17:00,64.6,57.2,29.92,ESE,112,0.0,0.0,77,0.00,CLR,,0.00,0.0,WeatherDisplay:10.37,2013-09-22 07:17:00,
2013-09-22 02:22:00,64.2,56.9,29.92,ESE,112,0.0,0.0,77,0.00,CLR,,0.00,0.0,WeatherDisplay:10.37,2013-09-22 07:22:00,
2013-09-22 02:27:00,64.0,56.7,29.92,ESE,112,0.0,0.0,77,0.00,CLR,,0.00,0.0,WeatherDisplay:10.37,2013-09-22 07:27:00,
2013-09-22 02:32:00,64.2,56.9,29.92,ESE,112,0.0,0.0,77,0.00,CLR,,0.00,0.0,WeatherDisplay:10.37,2013-09-22 07:32:00,
2013-09-22 02:38:00,63.9,56.9,29.92,SSE,158,0.0,0.0,78,0.00,CLR,,0.00,0.0,WeatherDisplay:10.37,2013-09-22 07:38:00,
2013-09-22 02:43:00,63.9,56.9,29.92,SSE,158,0.0,0.0,78,0.00,CLR,,0.00,0.0,WeatherDisplay:10.37,2013-09-22 07:43:00,
2013-09-22 02:48:00,63.7,56.7,29.93,SSE,158,0.0,0.0,78,0.00,CLR,,0.00,0.0,WeatherDisplay:10.37,2013-09-22 07:48:00,
2013-09-22 02:53:00,63.7,56.7,29.93,SSE,158,0.0,0.0,78,0.00,CLR,,0.00,0.0,WeatherDisplay:10.37,2013-09-22 07:53:00,
2013-09-22 02:58:00,63.7,56.7,29.93,SSE,158,0.0,0.0,78,0.00,CLR,,0.00,0.0,WeatherDisplay:10.37,2013-09-22 07:58:00,
2013-09-22 03:03:00,63.5,56.5,29.93,SSE,158,0.0,0.0,78,0.00,CLR,,0.00,0.0,WeatherDisplay:10.37,2013-09-22 08:03:00,
2013-09-22 03:08:00,63.5,56.5,29.92,SSE,158,0.0,0.0,78,0.00,CLR,,0.00,0.0,WeatherDisplay:10.37,2013-09-22 08:08:00,
2013-09-22 03:13:00,63.3,56.3,29.92,SSE,158,0.0,0.0,78,0.00,CLR,,0.00,0.0,WeatherDisplay:10.37,2013-09-22 08:13:00,
2013-09-22 03:18:00,63.3,56.3,29.92,SSE,158,0.0,0.0,78,0.00,CLR,,0.00,0.0,WeatherDisplay:10.37,2013-09-22 08:18:00,
2013-09-22 03:23:00,63.1,56.2,29.92,SSE,158,0.0,0.0,78,0.00,CLR,,0.00,0.0,WeatherDisplay:10.37,2013-09-22 08:23:00,
2013-09-22 03:28:00,63.0,56.0,29.91,SSE,158,0.0,0.0,78,0.00,CLR,,0.00,0.0,WeatherDisplay:10.37,2013-09-22 08:28:00,
2013-09-22 03:33:00,63.1,56.2,29.91,SSE,158,0.0,0.0,78,0.00,CLR,,0.00,0.0,WeatherDisplay:10.37,2013-09-22 08:33:00,
2013-09-22 03:38:00,63.1,56.5,29.91,SSE,158,0.0,0.0,79,0.00,CLR,,0.00,0.0,WeatherDisplay:10.37,2013-09-22 08:38:00,
2013-09-22 03:43:00,63.0,56.0,29.91,SSE,158,0.0,0.0,78,0.00,CLR,,0.00,0.0,WeatherDisplay:10.37,2013-09-22 08:43:00,
2013-09-22 03:49:00,62.6,56.0,29.91,SSE,158,0.0,0.0,79,0.00,CLR,,0.00,0.0,WeatherDisplay:10.37,2013-09-22 08:49:00,
2013-09-22 03:54:00,62.6,56.0,29.91,SSE,158,0.0,0.0,79,0.00,CLR,,0.00,0.0,WeatherDisplay:10.37,2013-09-22 08:54:00,
2013-09-22 03:59:00,62.6,56.0,29.91,SSE,158,0.0,0.0,79,0.00,CLR,,0.00,0.0,WeatherDisplay:10.37,2013-09-22 08:59:00,
2013-09-22 04:04:00,62.4,55.8,29.91,SSE,158,0.0,0.0,79,0.00,CLR,,0.00,0.0,WeatherDisplay:10.37,2013-09-22 09:04:00,
2013-09-22 04:09:00,62.2,55.6,29.91,SSE,158,0.0,0.0,79,0.00,CLR,,0.00,0.0,WeatherDisplay:10.37,2013-09-22 09:09:00,
2013-09-22 04:14:00,62.4,56.2,29.91,NW,315,0.0,0.0,80,0.00,CLR,,0.00,0.0,WeatherDisplay:10.37,2013-09-22 09:14:00,
2013-09-22 04:19:00,62.2,56.0,29.91,North,0,0.0,0.0,80,0.00,CLR,,0.00,0.0,WeatherDisplay:10.37,2013-09-22 09:19:00,
2013-09-22 04:24:00,62.4,56.2,29.91,NW,315,0.0,0.0,80,0.00,CLR,,0.00,0.0,WeatherDisplay:10.37,2013-09-22 09:24:00,
2013-09-22 04:29:00,62.2,56.0,29.92,NW,315,0.0,0.0,80,0.00,CLR,,0.00,0.0,WeatherDisplay:10.37,2013-09-22 09:29:00,
2013-09-22 04:34:00,62.2,56.0,29.92,NW,315,0.0,0.0,80,0.00,CLR,,0.00,0.0,WeatherDisplay:10.37,2013-09-22 09:34:00,
2013-09-22 04:39:00,62.1,55.8,29.92,NW,315,0.0,0.0,80,0.00,CLR,,0.00,0.0,WeatherDisplay:10.37,2013-09-22 09:39:00,
2013-09-22 04:44:00,61.9,55.6,29.92,NW,315,0.0,0.0,80,0.00,CLR,,0.00,0.0,WeatherDisplay:10.37,2013-09-22 09:44:00,
2013-09-22 04:49:00,61.7,55.5,29.91,NW,315,0.0,0.0,80,0.00,CLR,,0.00,0.0,WeatherDisplay:10.37,2013-09-22 09:49:00,
2013-09-22 04:54:00,61.7,55.5,29.91,NW,315,0.0,0.0,80,0.00,CLR,,0.00,0.0,WeatherDisplay:10.37,2013-09-22 09:54:00,
2013-09-22 04:59:00,61.5,55.3,29.91,NW,315,0.0,0.0,80,0.00,CLR,,0.00,0.0,WeatherDisplay:10.37,2013-09-22 09:59:00,
2013-09-22 05:04:00,61.7,55.8,29.91,NW,315,0.0,0.0,81,0.00,CLR,,0.00,0.0,WeatherDisplay:10.37,2013-09-22 10:04:00,
2013-09-22 05:09:00,61.7,55.8,29.91,NW,315,0.0,0.0,81,0.00,CLR,,0.00,0.0,WeatherDisplay:10.37,2013-09-22 10:09:00,
2013-09-22 05:14:00,61.5,55.6,29.91,NW,315,0.0,0.0,81,0.00,CLR,,0.00,0.0,WeatherDisplay:10.37,2013-09-22 10:14:00,
2013-09-22 05:19:00,61.5,55.6,29.91,NW,315,0.0,0.0,81,0.00,CLR,,0.00,0.0,WeatherDisplay:10.37,2013-09-22 10:19:00,
2013-09-22 05:24:00,61.3,55.5,29.91,NW,315,0.0,0.0,81,0.00,CLR,,0.00,0.0,WeatherDisplay:10.37,2013-09-22 10:24:00,
2013-09-22 05:29:00,61.3,55.5,29.91,NW,315,0.0,0.0,81,0.00,CLR,,0.00,0.0,WeatherDisplay:10.37,2013-09-22 10:29:00,
2013-09-22 05:34:00,61.2,55.3,29.91,NW,315,0.0,0.0,81,0.00,CLR,,0.00,0.0,WeatherDisplay:10.37,2013-09-22 10:34:00,
2013-09-22 05:39:00,61.3,55.5,29.91,NW,315,0.0,0.0,81,0.00,CLR,,0.00,0.0,WeatherDisplay:10.37,2013-09-22 10:39:00,
2013-09-22 05:44:00,61.2,55.3,29.91,NW,315,0.0,0.0,81,0.00,CLR,,0.00,0.0,WeatherDisplay:10.37,2013-09-22 10:44:00,
2013-09-22 05:49:00,61.0,55.1,29.91,NW,315,0.0,0.0,81,0.00,CLR,,0.00,0.0,WeatherDisplay:10.37,2013-09-22 10:49:00,
2013-09-22 05:54:00,61.0,55.1,29.91,NW,315,0.0,0.0,81,0.00,CLR,,0.00,0.0,WeatherDisplay:10.37,2013-09-22 10:54:00,
2013-09-22 05:59:00,60.8,54.9,29.91,NW,315,0.0,0.0,81,0.00,CLR,,0.00,0.0,WeatherDisplay:10.37,2013-09-22 10:59:00,
2013-09-22 06:04:00,61.0,55.1,29.91,NW,315,0.0,0.0,81,0.00,CLR,,0.00,0.0,WeatherDisplay:10.37,2013-09-22 11:04:00,
2013-09-22 06:09:00,61.0,55.1,29.92,NW,315,0.0,0.0,81,0.00,CLR,,0.00,0.0,WeatherDisplay:10.37,2013-09-22 11:09:00,
2013-09-22 06:14:00,60.8,55.3,29.92,NW,315,0.0,0.0,82,0.00,CLR,,0.00,0.0,WeatherDisplay:10.37,2013-09-22 11:14:00,
2013-09-22 06:19:00,61.0,55.4,29.92,WNW,292,0.0,0.0,82,0.00,CLR,,0.00,0.0,WeatherDisplay:10.37,2013-09-22 11:19:00,
2013-09-22 06:24:00,60.8,55.3,29.92,NW,315,0.0,0.0,82,0.00,CLR,,0.00,0.0,WeatherDisplay:10.37,2013-09-22 11:24:00,
2013-09-22 06:29:00,60.8,55.3,29.92,NW,315,0.0,0.0,82,0.00,CLR,,0.00,0.0,WeatherDisplay:10.37,2013-09-22 11:29:00,
2013-09-22 06:34:00,60.6,55.1,29.92,WNW,292,0.0,0.0,82,0.00,CLR,,0.00,0.0,WeatherDisplay:10.37,2013-09-22 11:34:00,
2013-09-22 06:39:00,60.6,55.1,29.92,WNW,292,0.0,0.0,82,0.00,CLR,,0.00,0.0,WeatherDisplay:10.37,2013-09-22 11:39:00,
2013-09-22 06:44:00,60.4,54.9,29.92,WNW,292,0.0,0.0,82,0.00,CLR,,0.00,0.0,WeatherDisplay:10.37,2013-09-22 11:44:00,
2013-09-22 06:49:00,60.6,55.1,29.93,NNW,338,0.0,0.0,82,0.00,CLR,,0.00,0.0,WeatherDisplay:10.37,2013-09-22 11:49:00,
2013-09-22 06:54:00,60.4,55.3,29.93,NW,315,0.0,0.0,83,0.00,CLR,,0.00,0.0,WeatherDisplay:10.37,2013-09-22 11:54:00,
2013-09-22 06:59:00,60.6,55.1,29.93,NW,315,0.0,0.0,82,0.00,CLR,,0.00,0.0,WeatherDisplay:10.37,2013-09-22 11:59:00,
2013-09-22 07:04:00,60.4,55.3,29.93,NNW,338,0.0,0.0,83,0.00,OVC,,0.00,0.0,WeatherDisplay:10.37,2013-09-22 12:04:00,
2013-09-22 07:09:00,60.6,55.4,29.93,NNW,338,0.0,0.0,83,0.00,OVC,,0.00,0.0,WeatherDisplay:10.37,2013-09-22 12:09:00,
2013-09-22 07:14:00,60.3,55.1,29.93,NNW,338,0.0,0.0,83,0.00,OVC,,0.00,0.0,WeatherDisplay:10.37,2013-09-22 12:14:00,
2013-09-22 07:19:00,60.1,54.9,29.93,NW,315,0.0,0.0,83,0.00,OVC,,0.00,0.0,WeatherDisplay:10.37,2013-09-22 12:19:00,
2013-09-22 07:24:00,60.1,54.9,29.93,NW,315,0.0,0.0,83,0.00,OVC,,0.00,0.0,WeatherDisplay:10.37,2013-09-22 12:24:00,
2013-09-22 07:30:00,60.1,54.9,29.93,NW,315,0.0,0.0,83,0.00,OVC,,0.00,0.0,WeatherDisplay:10.37,2013-09-22 12:30:00,
2013-09-22 07:35:00,60.1,54.9,29.93,NW,315,0.0,0.0,83,0.00,OVC,,0.00,0.0,WeatherDisplay:10.37,2013-09-22 12:35:00,
2013-09-22 07:40:00,59.9,54.7,29.93,NW,315,0.0,0.0,83,0.00,OVC,,0.00,0.0,WeatherDisplay:10.37,2013-09-22 12:40:00,
2013-09-22 07:45:00,59.9,54.7,29.93,NW,315,0.0,0.0,83,0.00,OVC,,0.00,0.0,WeatherDisplay:10.37,2013-09-22 12:45:00,
2013-09-22 07:50:00,59.9,54.7,29.95,NW,315,0.0,0.0,83,0.00,OVC,,0.00,0.0,WeatherDisplay:10.37,2013-09-22 12:50:00,
2013-09-22 07:55:00,59.9,54.7,29.95,NW,315,0.0,0.0,83,0.00,OVC,,0.00,0.0,WeatherDisplay:10.37,2013-09-22 12:55:00,
2013-09-22 08:00:00,59.7,54.5,29.95,NNW,338,0.0,0.0,83,0.00,OVC,,0.00,0.0,WeatherDisplay:10.37,2013-09-22 13:00:00,
2013-09-22 08:05:00,59.7,54.5,29.95,NNW,338,0.0,0.0,83,0.00,OVC,,0.00,0.0,WeatherDisplay:10.37,2013-09-22 13:05:00,
2013-09-22 08:10:00,59.9,54.7,29.94,NNW,338,0.0,0.0,83,0.00,OVC,,0.00,0.0,WeatherDisplay:10.37,2013-09-22 13:10:00,
2013-09-22 08:15:00,60.1,55.2,29.94,NE,45,0.0,0.0,84,0.00,OVC,,0.00,0.0,WeatherDisplay:10.37,2013-09-22 13:15:00,
2013-09-22 08:20:00,60.3,55.4,29.94,NNW,338,0.0,0.0,84,0.00,OVC,,0.00,0.0,WeatherDisplay:10.37,2013-09-22 13:20:00,
2013-09-22 08:25:00,60.6,55.8,29.94,North,0,0.0,0.0,84,0.00,OVC,,0.00,0.0,WeatherDisplay:10.37,2013-09-22 13:25:00,
2013-09-22 08:30:00,60.8,56.3,29.95,NW,315,0.0,0.0,85,0.00,OVC,,0.00,0.0,WeatherDisplay:10.37,2013-09-22 13:30:00,
2013-09-22 08:35:00,61.0,56.4,29.95,NNW,338,0.0,0.0,85,0.00,OVC,,0.00,0.0,WeatherDisplay:10.37,2013-09-22 13:35:00,
2013-09-22 08:40:00,61.2,56.6,29.95,NNW,338,0.0,0.0,85,0.00,OVC,,0.00,0.0,WeatherDisplay:10.37,2013-09-22 13:40:00,
2013-09-22 08:45:00,61.3,56.8,29.95,NW,315,0.0,0.0,85,0.00,OVC,,0.00,0.0,WeatherDisplay:10.37,2013-09-22 13:45:00,
2013-09-22 08:50:00,61.5,57.0,29.95,NW,315,0.0,0.0,85,0.00,OVC,,0.00,0.0,WeatherDisplay:10.37,2013-09-22 13:50:00,
2013-09-22 08:55:00,62.1,57.5,29.95,NNW,338,0.0,0.0,85,0.00,OVC,,0.00,0.0,WeatherDisplay:10.37,2013-09-22 13:55:00,
2013-09-22 09:00:00,62.2,57.7,29.95,NNW,338,1.0,0.0,85,0.00,OVC,,0.00,0.0,WeatherDisplay:10.37,2013-09-22 14:00:00,
2013-09-22 09:05:00,62.8,57.9,29.95,ESE,112,0.0,0.0,84,0.00,OVC,,0.00,0.0,WeatherDisplay:10.37,2013-09-22 14:05:00,
2013-09-22 09:10:00,63.3,58.1,29.97,ESE,112,2.3,2.3,83,0.00,OVC,,0.00,0.0,WeatherDisplay:10.37,2013-09-22 14:10:00,
2013-09-22 09:15:00,64.0,58.4,29.97,ESE,112,4.6,4.6,82,0.00,OVC,,0.00,0.0,WeatherDisplay:10.37,2013-09-22 14:15:00,
2013-09-22 09:20:00,64.6,58.3,29.97,ENE,68,2.3,2.3,80,0.00,OVC,,0.00,0.0,WeatherDisplay:10.37,2013-09-22 14:20:00,
2013-09-22 09:25:00,64.9,58.3,29.97,East,90,3.6,3.6,79,0.00,OVC,,0.00,0.0,WeatherDisplay:10.37,2013-09-22 14:25:00,
2013-09-22 09:30:00,65.3,58.3,29.98,SSE,158,2.3,2.3,78,0.00,OVC,,0.00,0.0,WeatherDisplay:10.37,2013-09-22 14:30:00,
2013-09-22 09:35:00,65.7,58.3,29.98,ESE,112,3.5,3.5,77,0.00,OVC,,0.00,0.0,WeatherDisplay:10.37,2013-09-22 14:35:00,
2013-09-22 09:40:00,66.2,58.4,29.98,ESE,112,2.3,2.3,76,0.00,OVC,,0.00,0.0,WeatherDisplay:10.37,2013-09-22 14:40:00,
2013-09-22 09:45:00,66.4,58.2,29.98,ESE,112,2.3,2.3,75,0.00,OVC,,0.00,0.0,WeatherDisplay:10.37,2013-09-22 14:45:00,
2013-09-22 09:50:00,66.9,58.4,29.99,ESE,112,2.3,2.3,74,0.00,OVC,,0.00,0.0,WeatherDisplay:10.37,2013-09-22 14:50:00,
2013-09-22 09:55:00,67.5,58.5,29.99,SE,135,3.5,3.5,73,0.00,OVC,,0.00,0.0,WeatherDisplay:10.37,2013-09-22 14:55:00,
2013-09-22 10:00:00,67.8,58.5,29.99,ESE,112,5.1,5.1,72,0.00,OVC,,0.00,0.0,WeatherDisplay:10.37,2013-09-22 15:00:00,
2013-09-22 10:05:00,67.8,58.1,29.99,ESE,112,4.6,4.6,71,0.00,OVC,,0.00,0.0,WeatherDisplay:10.37,2013-09-22 15:05:00,
2013-09-22 10:10:00,68.2,58.0,29.99,SE,135,5.8,5.8,70,0.00,OVC,,0.00,0.0,WeatherDisplay:10.37,2013-09-22 15:10:00,
2013-09-22 10:15:00,68.7,58.5,29.99,ESE,112,4.6,4.6,70,0.00,OVC,,0.00,0.0,WeatherDisplay:10.37,2013-09-22 15:15:00,
2013-09-22 10:20:00,68.9,58.3,29.99,SE,135,3.5,3.5,69,0.00,OVC,,0.00,0.0,WeatherDisplay:10.37,2013-09-22 15:20:00,
2013-09-22 10:25:00,69.3,58.2,29.99,SE,135,3.5,3.5,68,0.00,OVC,,0.00,0.0,WeatherDisplay:10.37,2013-09-22 15:25:00,
2013-09-22 10:30:00,69.6,58.6,29.99,ESE,112,2.8,2.8,68,0.00,OVC,,0.00,0.0,WeatherDisplay:10.37,2013-09-22 15:30:00,
2013-09-22 10:35:00,70.0,58.9,29.99,ESE,112,3.5,3.5,68,0.00,OVC,,0.00,0.0,WeatherDisplay:10.37,2013-09-22 15:35:00,
2013-09-22 10:40:00,69.8,58.8,29.99,SE,135,4.6,4.6,68,0.00,OVC,,0.00,0.0,WeatherDisplay:10.37,2013-09-22 15:40:00,
2013-09-22 10:45:00,70.2,59.1,29.99,ESE,112,3.5,3.5,68,0.00,OVC,,0.00,0.0,WeatherDisplay:10.37,2013-09-22 15:45:00,
2013-09-22 10:50:00,70.5,59.0,30.00,East,90,2.3,2.4,67,0.00,OVC,,0.00,0.0,WeatherDisplay:10.37,2013-09-22 15:50:00,
2013-09-22 10:55:00,70.9,59.0,30.00,ESE,112,4.6,4.6,66,0.00,OVC,,0.00,0.0,WeatherDisplay:10.37,2013-09-22 15:55:00,
2013-09-22 11:01:00,71.1,59.1,30.00,SE,135,2.3,2.3,66,0.00,OVC,,0.00,0.0,WeatherDisplay:10.37,2013-09-22 16:01:00,
2013-09-22 11:06:00,71.4,59.0,30.00,SE,135,2.6,2.6,65,0.00,OVC,,0.00,0.0,WeatherDisplay:10.37,2013-09-22 16:06:00,
2013-09-22 11:11:00,71.6,59.2,30.00,SSE,158,1.2,2.0,65,0.00,OVC,,0.00,0.0,WeatherDisplay:10.37,2013-09-22 16:11:00,
2013-09-22 11:16:00,72.0,58.7,30.00,SE,135,4.6,4.6,63,0.00,OVC,,0.00,0.0,WeatherDisplay:10.37,2013-09-22 16:16:00,
2013-09-22 11:21:00,72.5,59.2,30.00,ESE,112,4.6,4.6,63,0.00,OVC,,0.00,0.0,WeatherDisplay:10.37,2013-09-22 16:21:00,
2013-09-22 11:26:00,72.9,59.1,30.00,ESE,112,3.8,3.8,62,0.00,OVC,,0.00,0.0,WeatherDisplay:10.37,2013-09-22 16:26:00,
2013-09-22 11:31:00,72.9,59.1,29.98,SE,135,3.5,3.5,62,0.00,OVC,,0.00,0.0,WeatherDisplay:10.37,2013-09-22 16:31:00,
2013-09-22 11:36:00,73.2,58.5,29.98,SE,135,0.0,2.1,60,0.00,OVC,,0.00,0.0,WeatherDisplay:10.37,2013-09-22 16:36:00,
2013-09-22 11:41:00,73.6,58.4,29.98,ENE,68,2.3,2.3,59,0.00,OVC,,0.00,0.0,WeatherDisplay:10.37,2013-09-22 16:41:00,
2013-09-22 11:46:00,73.8,58.5,29.98,ENE,68,6.9,6.9,59,0.00,OVC,,0.00,0.0,WeatherDisplay:10.37,2013-09-22 16:46:00,
2013-09-22 11:51:00,73.8,58.1,29.99,East,90,2.3,2.3,58,0.00,OVC,,0.00,0.0,WeatherDisplay:10.37,2013-09-22 16:51:00,
2013-09-22 11:56:00,74.3,57.6,29.99,NNE,22,2.3,2.3,56,0.00,OVC,,0.00,0.0,WeatherDisplay:10.37,2013-09-22 16:56:00,
2013-09-22 12:01:00,74.5,57.8,29.99,East,90,3.5,3.5,56,0.00,OVC,,0.00,0.0,WeatherDisplay:10.37,2013-09-22 17:01:00,
2013-09-22 12:06:00,74.7,57.9,29.99,ESE,112,2.3,2.5,56,0.00,OVC,,0.00,0.0,WeatherDisplay:10.37,2013-09-22 17:06:00,
2013-09-22 12:11:00,74.7,57.9,29.99,ESE,112,2.3,2.5,56,0.00,OVC,,0.00,0.0,WeatherDisplay:10.37,2013-09-22 17:11:00,
2013-09-22 12:16:00,75.2,57.9,29.99,ENE,68,0.0,2.5,55,0.00,OVC,,0.00,0.0,WeatherDisplay:10.37,2013-09-22 17:16:00,
2013-09-22 12:21:00,75.4,58.6,29.99,ESE,112,2.3,2.3,56,0.00,OVC,,0.00,0.0,WeatherDisplay:10.37,2013-09-22 17:21:00,
2013-09-22 12:26:00,75.7,58.4,29.99,ESE,112,3.5,3.5,55,0.00,OVC,,0.00,0.0,WeatherDisplay:10.37,2013-09-22 17:26:00,
2013-09-22 12:31:00,75.7,58.4,29.97,ESE,112,4.6,4.6,55,0.00,OVC,,0.00,0.0,WeatherDisplay:10.37,2013-09-22 17:31:00,
2013-09-22 12:36:00,76.1,57.7,29.97,ENE,68,6.9,6.9,53,0.00,OVC,,0.00,0.0,WeatherDisplay:10.37,2013-09-22 17:36:00,
2013-09-22 12:41:00,76.1,57.7,29.97,ESE,112,4.9,4.9,53,0.00,OVC,,0.00,0.0,WeatherDisplay:10.37,2013-09-22 17:41:00,
2013-09-22 12:46:00,76.5,58.1,29.97,SE,135,2.3,2.8,53,0.00,OVC,,0.00,0.0,WeatherDisplay:10.37,2013-09-22 17:46:00,
2013-09-22 12:51:00,76.5,57.5,29.96,SSE,158,0.0,2.3,52,0.00,OVC,,0.00,0.0,WeatherDisplay:10.37,2013-09-22 17:51:00,
2013-09-22 12:56:00,76.6,57.7,29.96,SE,135,5.8,5.8,52,0.00,OVC,,0.00,0.0,WeatherDisplay:10.37,2013-09-22 17:56:00,
2013-09-22 13:01:00,76.8,57.9,29.96,SE,135,3.5,3.5,52,0.00,OVC,,0.00,0.0,WeatherDisplay:10.37,2013-09-22 18:01:00,
2013-09-22 13:06:00,77.2,58.2,29.96,WSW,248,2.3,2.3,52,0.00,OVC,,0.00,0.0,WeatherDisplay:10.37,2013-09-22 18:06:00,
2013-09-22 13:11:00,77.0,57.5,29.95,ESE,112,3.5,3.5,51,0.00,OVC,,0.00,0.0,WeatherDisplay:10.37,2013-09-22 18:11:00,
2013-09-22 13:17:00,77.5,57.4,29.95,NW,315,2.3,2.3,50,0.00,OVC,,0.00,0.0,WeatherDisplay:10.37,2013-09-22 18:17:00,
2013-09-22 13:22:00,77.4,57.3,29.95,East,90,5.2,5.2,50,0.00,OVC,,0.00,0.0,WeatherDisplay:10.37,2013-09-22 18:22:00,
2013-09-22 13:27:00,77.9,57.2,29.95,NW,315,2.3,2.3,49,0.00,OVC,,0.00,0.0,WeatherDisplay:10.37,2013-09-22 18:27:00,
2013-09-22 13:32:00,78.1,56.2,29.95,ESE,112,5.8,5.8,47,0.00,OVC,,0.00,0.0,WeatherDisplay:10.37,2013-09-22 18:32:00,
2013-09-22 13:37:00,78.3,56.4,29.95,ESE,112,2.3,2.6,47,0.00,OVC,,0.00,0.0,WeatherDisplay:10.37,2013-09-22 18:37:00,
2013-09-22 13:42:00,78.3,57.0,29.95,ESE,112,3.5,3.5,48,0.00,OVC,,0.00,0.0,WeatherDisplay:10.37,2013-09-22 18:42:00,
2013-09-22 13:47:00,78.3,56.4,29.95,WSW,248,0.0,2.5,47,0.00,OVC,,0.00,0.0,WeatherDisplay:10.37,2013-09-22 18:47:00,
2013-09-22 13:52:00,78.3,56.4,29.94,SSW,202,0.0,1.2,47,0.00,OVC,,0.00,0.0,WeatherDisplay:10.37,2013-09-22 18:52:00,
2013-09-22 13:57:00,78.4,57.1,29.94,ESE,112,4.6,4.6,48,0.00,OVC,,0.00,0.0,WeatherDisplay:10.37,2013-09-22 18:57:00,
2013-09-22 14:02:00,78.8,55.7,29.94,ENE,68,3.5,3.5,45,0.00,OVC,,0.00,0.0,WeatherDisplay:10.37,2013-09-22 19:02:00,
2013-09-22 14:07:00,79.0,53.9,29.94,North,0,1.2,2.2,42,0.00,OVC,,0.00,0.0,WeatherDisplay:10.37,2013-09-22 19:07:00,
2013-09-22 14:12:00,79.0,55.2,29.92,East,90,4.6,4.6,44,0.00,OVC,,0.00,0.0,WeatherDisplay:10.37,2013-09-22 19:12:00,
2013-09-22 14:17:00,79.0,55.2,29.92,NW,315,2.3,2.3,44,0.00,OVC,,0.00,0.0,WeatherDisplay:10.37,2013-09-22 19:17:00,
2013-09-22 14:22:00,79.2,54.7,29.92,NE,45,2.3,2.3,43,0.00,OVC,,0.00,0.0,WeatherDisplay:10.37,2013-09-22 19:22:00,
2013-09-22 14:27:00,79.3,55.5,29.92,ENE,68,4.6,4.6,44,0.00,OVC,,0.00,0.0,WeatherDisplay:10.37,2013-09-22 19:27:00,
2013-09-22 14:32:00,79.5,55.7,29.91,NNW,338,2.3,2.3,44,0.00,OVC,,0.00,0.0,WeatherDisplay:10.37,2013-09-22 19:32:00,
2013-09-22 14:37:00,79.7,55.9,29.91,SE,135,3.5,3.5,44,0.00,OVC,,0.00,0.0,WeatherDisplay:10.37,2013-09-22 19:37:00,
2013-09-22 14:42:00,79.9,56.0,29.91,ESE,112,4.6,4.6,44,0.00,OVC,,0.00,0.0,WeatherDisplay:10.37,2013-09-22 19:42:00,
2013-09-22 14:47:00,80.2,57.0,29.90,ENE,68,3.9,3.9,45,0.00,OVC,,0.00,0.0,WeatherDisplay:10.37,2013-09-22 19:47:00,
2013-09-22 14:52:00,80.4,55.9,29.90,SW,225,1.4,2.0,43,0.00,OVC,,0.00,0.0,WeatherDisplay:10.37,2013-09-22 19:52:00,
2013-09-22 14:57:00,80.2,55.7,29.90,NNW,338,3.1,3.1,43,0.00,OVC,,0.00,0.0,WeatherDisplay:10.37,2013-09-22 19:57:00,
2013-09-22 15:02:00,80.4,55.9,29.90,NE,45,4.6,4.6,43,0.00,OVC,,0.00,0.0,WeatherDisplay:10.37,2013-09-22 20:02:00,
2013-09-22 15:07:00,80.6,56.0,29.88,NNW,338,4.6,4.6,43,0.00,OVC,,0.00,0.0,WeatherDisplay:10.37,2013-09-22 20:07:00,
2013-09-22 15:12:00,80.8,56.8,29.88,SE,135,4.6,4.6,44,0.00,OVC,,0.00,0.0,WeatherDisplay:10.37,2013-09-22 20:12:00,
2013-09-22 15:17:00,81.0,55.7,29.88,ENE,68,1.2,2.0,42,0.00,OVC,,0.00,0.0,WeatherDisplay:10.37,2013-09-22 20:17:00,
2013-09-22 15:23:00,80.8,56.2,29.88,North,0,1.2,2.0,43,0.00,OVC,,0.00,0.0,WeatherDisplay:10.37,2013-09-22 20:23:00,
2013-09-22 15:28:00,81.1,56.5,29.88,ENE,68,2.3,2.3,43,0.00,OVC,,0.00,0.0,WeatherDisplay:10.37,2013-09-22 20:28:00,
2013-09-22 15:33:00,81.0,56.4,29.88,ENE,68,2.3,2.3,43,0.00,OVC,,0.00,0.0,WeatherDisplay:10.37,2013-09-22 20:33:00,
2013-09-22 15:38:00,81.1,55.9,29.88,NNW,338,5.8,5.8,42,0.00,OVC,,0.00,0.0,WeatherDisplay:10.37,2013-09-22 20:38:00,
2013-09-22 15:43:00,81.5,56.2,29.88,ENE,68,1.2,2.0,42,0.00,OVC,,0.00,0.0,WeatherDisplay:10.37,2013-09-22 20:43:00,
2013-09-22 15:48:00,81.7,55.7,29.87,WNW,292,4.6,4.6,41,0.00,OVC,,0.00,0.0,WeatherDisplay:10.37,2013-09-22 20:48:00,
2013-09-22 15:53:00,81.7,55.7,29.87,East,90,3.5,3.5,41,0.00,OVC,,0.00,0.0,WeatherDisplay:10.37,2013-09-22 20:53:00,
2013-09-22 15:58:00,81.7,55.7,29.87,SSE,158,4.6,4.6,41,0.00,OVC,,0.00,0.0,WeatherDisplay:10.37,2013-09-22 20:58:00,
2013-09-22 16:03:00,81.7,55.7,29.87,NE,45,4.9,4.9,41,0.00,OVC,,0.00,0.0,WeatherDisplay:10.37,2013-09-22 21:03:00,
2013-09-22 16:08:00,81.7,55.7,29.87,ESE,112,4.9,4.9,41,0.00,OVC,,0.00,0.0,WeatherDisplay:10.37,2013-09-22 21:08:00,
2013-09-22 16:13:00,81.9,55.2,29.87,WSW,248,0.0,2.3,40,0.00,OVC,,0.00,0.0,WeatherDisplay:10.37,2013-09-22 21:13:00,
2013-09-22 16:18:00,81.7,55.7,29.87,SE,135,3.5,3.5,41,0.00,OVC,,0.00,0.0,WeatherDisplay:10.37,2013-09-22 21:18:00,
2013-09-22 16:23:00,81.9,55.2,29.87,NNE,22,0.0,1.3,40,0.00,OVC,,0.00,0.0,WeatherDisplay:10.37,2013-09-22 21:23:00,
2013-09-22 16:28:00,81.9,55.2,29.86,East,90,1.2,1.4,40,0.00,OVC,,0.00,0.0,WeatherDisplay:10.37,2013-09-22 21:28:00,
2013-09-22 16:33:00,81.9,55.2,29.86,ESE,112,3.8,3.8,40,0.00,OVC,,0.00,0.0,WeatherDisplay:10.37,2013-09-22 21:33:00,
2013-09-22 16:38:00,81.7,55.7,29.86,NNE,22,3.5,3.5,41,0.00,OVC,,0.00,0.0,WeatherDisplay:10.37,2013-09-22 21:38:00,
2013-09-22 16:43:00,81.9,55.2,29.86,West,270,4.6,4.6,40,0.00,OVC,,0.00,0.0,WeatherDisplay:10.37,2013-09-22 21:43:00,
2013-09-22 16:48:00,82.2,55.5,29.86,NW,315,3.5,3.5,40,0.00,OVC,,0.00,0.0,WeatherDisplay:10.37,2013-09-22 21:48:00,
2013-09-22 16:53:00,82.2,55.5,29.86,SE,135,0.0,1.7,40,0.00,OVC,,0.00,0.0,WeatherDisplay:10.37,2013-09-22 21:53:00,
2013-09-22 16:58:00,82.2,55.5,29.86,ESE,112,6.9,6.9,40,0.00,OVC,,0.00,0.0,WeatherDisplay:10.37,2013-09-22 21:58:00,
2013-09-22 17:03:00,82.2,54.8,29.86,NE,45,5.8,5.8,39,0.00,OVC,,0.00,0.0,WeatherDisplay:10.37,2013-09-22 22:03:00,
2013-09-22 17:08:00,82.0,55.3,29.84,ENE,68,3.5,3.5,40,0.00,OVC,,0.00,0.0,WeatherDisplay:10.37,2013-09-22 22:08:00,
2013-09-22 17:13:00,82.2,55.5,29.84,WSW,248,2.3,2.3,40,0.00,OVC,,0.00,0.0,WeatherDisplay:10.37,2013-09-22 22:13:00,
2013-09-22 17:18:00,82.4,55.7,29.84,ESE,112,2.3,2.3,40,0.00,OVC,,0.00,0.0,WeatherDisplay:10.37,2013-09-22 22:18:00,
2013-09-22 17:23:00,82.2,54.8,29.84,NNE,22,0.0,1.6,39,0.00,OVC,,0.00,0.0,WeatherDisplay:10.37,2013-09-22 22:23:00,
2013-09-22 17:28:00,82.2,54.8,29.84,ESE,112,5.8,5.8,39,0.00,OVC,,0.00,0.0,WeatherDisplay:10.37,2013-09-22 22:28:00,
2013-09-22 17:33:00,82.0,55.3,29.84,NNW,338,2.3,2.3,40,0.00,OVC,,0.00,0.0,WeatherDisplay:10.37,2013-09-22 22:33:00,
2013-09-22 17:38:00,82.2,55.5,29.84,East,90,2.3,2.4,40,0.00,OVC,,0.00,0.0,WeatherDisplay:10.37,2013-09-22 22:38:00,
2013-09-22 17:43:00,81.9,55.2,29.84,ESE,112,4.6,4.6,40,0.00,OVC,,0.00,0.0,WeatherDisplay:10.37,2013-09-22 22:43:00,
2013-09-22 17:49:00,81.9,55.2,29.84,ESE,112,4.9,4.9,40,0.00,OVC,,0.00,0.0,WeatherDisplay:10.37,2013-09-22 22:49:00,
2013-09-22 17:54:00,81.9,55.2,29.84,East,90,2.3,2.8,40,0.00,OVC,,0.00,0.0,WeatherDisplay:10.37,2013-09-22 22:54:00,
2013-09-22 17:59:00,81.7,55.0,29.84,ENE,68,6.9,6.9,40,0.00,OVC,,0.00,0.0,WeatherDisplay:10.37,2013-09-22 22:59:00,
2013-09-22 18:04:00,81.9,55.2,29.84,ENE,68,4.6,4.6,40,0.00,OVC,,0.00,0.0,WeatherDisplay:10.37,2013-09-22 23:04:00,
2013-09-22 18:09:00,81.5,54.8,29.84,ESE,112,2.4,2.4,40,0.00,OVC,,0.00,0.0,WeatherDisplay:10.37,2013-09-22 23:09:00,
2013-09-22 18:14:00,81.5,54.8,29.84,ESE,112,5.8,5.8,40,0.00,OVC,,0.00,0.0,WeatherDisplay:10.37,2013-09-22 23:14:00,
2013-09-22 18:19:00,81.5,54.8,29.84,ESE,112,6.9,6.9,40,0.00,OVC,,0.00,0.0,WeatherDisplay:10.37,2013-09-22 23:19:00,
2013-09-22 18:24:00,81.1,54.5,29.84,ESE,112,4.6,4.8,40,0.00,OVC,,0.00,0.0,WeatherDisplay:10.37,2013-09-22 23:24:00,
2013-09-22 18:29:00,81.0,54.4,29.83,ESE,112,2.3,4.6,40,0.00,OVC,,0.00,0.0,WeatherDisplay:10.37,2013-09-22 23:29:00,
2013-09-22 18:34:00,81.0,54.4,29.83,East,90,6.9,6.9,40,0.00,OVC,,0.00,0.0,WeatherDisplay:10.37,2013-09-22 23:34:00,
2013-09-22 18:39:00,81.0,54.4,29.83,SE,135,2.3,3.6,40,0.00,OVC,,0.00,0.0,WeatherDisplay:10.37,2013-09-22 23:39:00,
2013-09-22 18:44:00,80.6,54.0,29.83,ESE,112,4.6,4.6,40,0.00,OVC,,0.00,0.0,WeatherDisplay:10.37,2013-09-22 23:44:00,
2013-09-22 18:49:00,80.8,54.2,29.84,East,90,3.5,3.5,40,0.00,OVC,,0.00,0.0,WeatherDisplay:10.37,2013-09-22 23:49:00,
2013-09-22 18:54:00,80.4,53.9,29.84,ESE,112,4.6,4.6,40,0.00,OVC,,0.00,0.0,WeatherDisplay:10.37,2013-09-22 23:54:00,
2013-09-22 18:59:00,80.2,53.7,29.84,East,90,4.6,4.6,40,0.00,OVC,,0.00,0.0,WeatherDisplay:10.37,2013-09-22 23:59:00,
2013-09-22 19:04:00,80.2,53.7,29.84,SE,135,4.6,4.6,40,0.00,OVC,,0.00,0.0,WeatherDisplay:10.37,2013-09-23 00:04:00,
2013-09-22 19:09:00,79.9,53.4,29.83,SE,135,6.9,6.9,40,0.00,OVC,,0.00,0.0,WeatherDisplay:10.37,2013-09-23 00:09:00,
2013-09-22 19:14:00,80.1,53.6,29.83,East,90,3.5,3.5,40,0.00,OVC,,0.00,0.0,WeatherDisplay:10.37,2013-09-23 00:14:00,
2013-09-22 19:19:00,79.5,53.1,29.83,ENE,68,2.3,2.8,40,0.00,OVC,,0.00,0.0,WeatherDisplay:10.37,2013-09-23 00:19:00,
2013-09-22 19:24:00,79.5,53.8,29.83,East,90,4.6,4.6,41,0.00,OVC,,0.00,0.0,WeatherDisplay:10.37,2013-09-23 00:24:00,
2013-09-22 19:29:00,79.3,53.6,29.83,East,90,4.6,4.6,41,0.00,OVC,,0.00,0.0,WeatherDisplay:10.37,2013-09-23 00:29:00,
2013-09-22 19:34:00,79.2,53.4,29.83,ESE,112,3.5,3.5,41,0.00,OVC,,0.00,0.0,WeatherDisplay:10.37,2013-09-23 00:34:00,
2013-09-22 19:39:00,79.0,53.3,29.83,SSE,158,3.5,3.5,41,0.00,OVC,,0.00,0.0,WeatherDisplay:10.37,2013-09-23 00:39:00,
2013-09-22 19:44:00,79.0,53.9,29.83,ESE,112,3.5,3.5,42,0.00,OVC,,0.00,0.0,WeatherDisplay:10.37,2013-09-23 00:44:00,
2013-09-22 19:49:00,78.6,53.6,29.83,ESE,112,3.5,3.5,42,0.00,OVC,,0.00,0.0,WeatherDisplay:10.37,2013-09-23 00:49:00,
2013-09-22 19:55:00,78.3,53.9,29.83,SSE,158,2.3,2.4,43,0.00,CLR,,0.00,0.0,WeatherDisplay:10.37,2013-09-23 00:55:00,
2013-09-22 20:00:00,78.1,53.8,29.83,ESE,112,3.5,3.5,43,0.00,CLR,,0.00,0.0,WeatherDisplay:10.37,2013-09-23 01:00:00,
2013-09-22 20:05:00,78.3,54.6,29.83,ESE,112,2.3,2.3,44,0.00,CLR,,0.00,0.0,WeatherDisplay:10.37,2013-09-23 01:05:00,
2013-09-22 20:10:00,77.9,54.8,29.83,ESE,112,2.3,2.3,45,0.00,CLR,,0.00,0.0,WeatherDisplay:10.37,2013-09-23 01:10:00,
2013-09-22 20:15:00,77.9,55.5,29.83,ESE,112,1.2,1.7,46,0.00,CLR,,0.00,0.0,WeatherDisplay:10.37,2013-09-23 01:15:00,
2013-09-22 20:20:00,77.2,54.8,29.83,ENE,68,2.3,2.3,46,0.00,CLR,,0.00,0.0,WeatherDisplay:10.37,2013-09-23 01:20:00,
2013-09-22 20:25:00,76.8,55.1,29.83,ESE,112,2.3,2.3,47,0.00,CLR,,0.00,0.0,WeatherDisplay:10.37,2013-09-23 01:25:00,
2013-09-22 20:30:00,76.6,55.5,29.84,East,90,2.3,2.3,48,0.00,CLR,,0.00,0.0,WeatherDisplay:10.37,2013-09-23 01:30:00,
2013-09-22 20:35:00,76.5,55.3,29.84,ESE,112,2.3,2.3,48,0.00,CLR,,0.00,0.0,WeatherDisplay:10.37,2013-09-23 01:35:00,
2013-09-22 20:40:00,76.5,55.3,29.84,ESE,112,3.5,3.5,48,0.00,CLR,,0.00,0.0,WeatherDisplay:10.37,2013-09-23 01:40:00,
2013-09-22 20:45:00,76.5,56.4,29.84,ESE,112,1.3,1.8,50,0.00,CLR,,0.00,0.0,WeatherDisplay:10.37,2013-09-23 01:45:00,
2013-09-22 20:51:00,75.9,55.4,29.85,ESE,112,2.3,2.3,49,0.00,CLR,,0.00,0.0,WeatherDisplay:10.37,2013-09-23 01:51:00,
2013-09-22 20:56:00,75.6,55.6,29.85,ESE,112,3.5,3.5,50,0.00,CLR,,0.00,0.0,WeatherDisplay:10.37,2013-09-23 01:56:00,
2013-09-22 21:01:00,75.6,55.6,29.85,ESE,112,2.3,2.3,50,0.00,CLR,,0.00,0.0,WeatherDisplay:10.37,2013-09-23 02:01:00,
2013-09-22 21:06:00,75.4,56.0,29.85,ESE,112,2.3,2.3,51,0.00,CLR,,0.00,0.0,WeatherDisplay:10.37,2013-09-23 02:06:00,
2013-09-22 21:11:00,75.0,56.2,29.85,ESE,112,3.5,3.5,52,0.00,CLR,,0.00,0.0,WeatherDisplay:10.37,2013-09-23 02:11:00,
2013-09-22 21:16:00,75.0,56.2,29.85,ESE,112,1.2,1.7,52,0.00,CLR,,0.00,0.0,WeatherDisplay:10.37,2013-09-23 02:16:00,
2013-09-22 21:21:00,74.7,55.9,29.85,East,90,3.5,3.5,52,0.00,CLR,,0.00,0.0,WeatherDisplay:10.37,2013-09-23 02:21:00,
2013-09-22 21:26:00,74.7,56.4,29.85,ENE,68,2.3,2.3,53,0.00,CLR,,0.00,0.0,WeatherDisplay:10.37,2013-09-23 02:26:00,
2013-09-22 21:31:00,74.3,56.6,29.85,ESE,112,2.3,2.3,54,0.00,CLR,,0.00,0.0,WeatherDisplay:10.37,2013-09-23 02:31:00,
2013-09-22 21:36:00,74.3,56.6,29.85,SE,135,2.3,2.3,54,0.00,CLR,,0.00,0.0,WeatherDisplay:10.37,2013-09-23 02:36:00,
2013-09-22 21:41:00,74.1,56.4,29.85,East,90,2.3,2.3,54,0.00,CLR,,0.00,0.0,WeatherDisplay:10.37,2013-09-23 02:41:00,
2013-09-22 21:46:00,74.1,56.4,29.85,East,90,2.3,2.3,54,0.00,CLR,,0.00,0.0,WeatherDisplay:10.37,2013-09-23 02:46:00,
2013-09-22 21:51:00,74.1,56.9,29.86,ESE,112,2.3,2.3,55,0.00,CLR,,0.00,0.0,WeatherDisplay:10.37,2013-09-23 02:51:00,
2013-09-22 21:56:00,73.8,57.1,29.86,East,90,2.3,2.3,56,0.00,CLR,,0.00,0.0,WeatherDisplay:10.37,2013-09-23 02:56:00,
2013-09-22 22:01:00,73.6,56.9,29.86,ESE,112,2.3,2.3,56,0.00,CLR,,0.00,0.0,WeatherDisplay:10.37,2013-09-23 03:01:00,
2013-09-22 22:06:00,73.2,57.1,29.86,ESE,112,2.3,2.3,57,0.00,CLR,,0.00,0.0,WeatherDisplay:10.37,2013-09-23 03:06:00,
2013-09-22 22:11:00,73.0,57.4,29.86,ENE,68,2.3,2.3,58,0.00,CLR,,0.00,0.0,WeatherDisplay:10.37,2013-09-23 03:11:00,
2013-09-22 22:16:00,72.9,57.2,29.86,East,90,2.3,2.3,58,0.00,CLR,,0.00,0.0,WeatherDisplay:10.37,2013-09-23 03:16:00,
2013-09-22 22:21:00,72.7,57.0,29.86,ESE,112,2.3,2.3,58,0.00,CLR,,0.00,0.0,WeatherDisplay:10.37,2013-09-23 03:21:00,
2013-09-22 22:26:00,72.9,57.2,29.86,ESE,112,2.3,2.3,58,0.00,CLR,,0.00,0.0,WeatherDisplay:10.37,2013-09-23 03:26:00,
2013-09-22 22:31:00,72.9,57.2,29.86,East,90,2.3,2.3,58,0.00,CLR,,0.00,0.0,WeatherDisplay:10.37,2013-09-23 03:31:00,
2013-09-22 22:36:00,72.5,57.4,29.86,SE,135,2.3,2.3,59,0.00,CLR,,0.00,0.0,WeatherDisplay:10.37,2013-09-23 03:36:00,
2013-09-22 22:41:00,72.1,57.0,29.86,ESE,112,1.2,1.2,59,0.00,CLR,,0.00,0.0,WeatherDisplay:10.37,2013-09-23 03:41:00,
2013-09-22 22:46:00,72.0,57.3,29.86,East,90,2.0,2.0,60,0.00,CLR,,0.00,0.0,WeatherDisplay:10.37,2013-09-23 03:46:00,
2013-09-22 22:51:00,71.6,57.4,29.87,ESE,112,2.3,2.3,61,0.00,CLR,,0.00,0.0,WeatherDisplay:10.37,2013-09-23 03:51:00,
2013-09-22 22:56:00,71.6,57.9,29.87,ESE,112,2.3,2.3,62,0.00,CLR,,0.00,0.0,WeatherDisplay:10.37,2013-09-23 03:56:00,
2013-09-22 23:01:00,71.6,57.9,29.87,ESE,112,2.3,2.3,62,0.00,CLR,,0.00,0.0,WeatherDisplay:10.37,2013-09-23 04:01:00,
2013-09-22 23:06:00,71.2,57.5,29.87,SE,135,2.3,2.3,62,0.00,CLR,,0.00,0.0,WeatherDisplay:10.37,2013-09-23 04:06:00,
2013-09-22 23:11:00,71.1,57.4,29.86,ESE,112,2.3,2.3,62,0.00,CLR,,0.00,0.0,WeatherDisplay:10.37,2013-09-23 04:11:00,
2013-09-22 23:17:00,71.2,57.1,29.86,ENE,68,2.3,2.3,61,0.00,CLR,,0.00,0.0,WeatherDisplay:10.37,2013-09-23 04:17:00,
2013-09-22 23:22:00,71.2,57.1,29.86,ESE,112,3.5,3.5,61,0.00,CLR,,0.00,0.0,WeatherDisplay:10.37,2013-09-23 04:22:00,
2013-09-22 23:27:00,71.4,56.8,29.86,ESE,112,3.5,3.5,60,0.00,CLR,,0.00,0.0,WeatherDisplay:10.37,2013-09-23 04:27:00,
2013-09-22 23:32:00,71.4,56.8,29.87,ESE,112,2.4,2.4,60,0.00,CLR,,0.00,0.0,WeatherDisplay:10.37,2013-09-23 04:32:00,
2013-09-22 23:37:00,71.2,56.2,29.87,ESE,112,3.5,3.5,59,0.00,CLR,,0.00,0.0,WeatherDisplay:10.37,2013-09-23 04:37:00,
2013-09-22 23:42:00,71.2,56.2,29.87,ESE,112,3.5,3.5,59,0.00,CLR,,0.00,0.0,WeatherDisplay:10.37,2013-09-23 04:42:00,
2013-09-22 23:47:00,71.4,55.9,29.87,ESE,112,2.3,2.4,58,0.00,CLR,,0.00,0.0,WeatherDisplay:10.37,2013-09-23 04:47:00,
2013-09-22 23:52:00,71.2,55.7,29.87,ESE,112,3.5,3.5,58,0.00,CLR,,0.00,0.0,WeatherDisplay:10.37,2013-09-23 04:52:00,
2013-09-22 23:57:00,71.1,55.5,29.87,ESE,112,2.3,2.4,58,0.00,CLR,,0.00,0.0,WeatherDisplay:10.37,2013-09-23 04:57:00,